sensor_id;sensor_type;location;lat;lon;timestamp;P1;durP1;ratioP1;P2;durP2;ratioP2
8397;SDS011;4236;54.504;9.588;2024-01-16T00:01:26;28.10;;;26.03;;
8397;SDS011;4236;54.504;9.588;2024-01-16T00:03:53;28.97;;;26.97;;
8397;SDS011;4236;54.504;9.588;2024-01-16T00:06:21;27.07;;;25.37;;
8397;SDS011;4236;54.504;9.588;2024-01-16T00:08:49;28.50;;;26.53;;
8397;SDS011;4236;54.504;9.588;2024-01-16T00:11:16;26.33;;;24.73;;
8397;SDS011;4236;54.504;9.588;2024-01-16T00:13:44;29.17;;;27.37;;
8397;SDS011;4236;54.504;9.588;2024-01-16T00:16:12;27.30;;;25.60;;
8397;SDS011;4236;54.504;9.588;2024-01-16T00:18:41;26.53;;;25.03;;
8397;SDS011;4236;54.504;9.588;2024-01-16T00:21:09;28.33;;;26.63;;
8397;SDS011;4236;54.504;9.588;2024-01-16T00:23:36;27.07;;;25.13;;
8397;SDS011;4236;54.504;9.588;2024-01-16T00:26:04;27.73;;;25.83;;
8397;SDS011;4236;54.504;9.588;2024-01-16T00:28:32;27.80;;;25.90;;
8397;SDS011;4236;54.504;9.588;2024-01-16T00:31:00;28.47;;;26.67;;
8397;SDS011;4236;54.504;9.588;2024-01-16T00:33:27;28.77;;;27.10;;
8397;SDS011;4236;54.504;9.588;2024-01-16T00:35:56;27.80;;;26.00;;
8397;SDS011;4236;54.504;9.588;2024-01-16T00:38:24;27.57;;;25.97;;
8397;SDS011;4236;54.504;9.588;2024-01-16T00:40:52;29.50;;;27.20;;
8397;SDS011;4236;54.504;9.588;2024-01-16T00:43:19;30.50;;;28.60;;
8397;SDS011;4236;54.504;9.588;2024-01-16T00:45:47;29.03;;;27.33;;
8397;SDS011;4236;54.504;9.588;2024-01-16T00:48:15;30.37;;;28.13;;
8397;SDS011;4236;54.504;9.588;2024-01-16T00:50:44;29.80;;;27.90;;
8397;SDS011;4236;54.504;9.588;2024-01-16T00:53:13;29.97;;;27.80;;
8397;SDS011;4236;54.504;9.588;2024-01-16T00:55:41;28.00;;;26.50;;
8397;SDS011;4236;54.504;9.588;2024-01-16T00:58:09;29.00;;;27.30;;
8397;SDS011;4236;54.504;9.588;2024-01-16T01:00:37;29.27;;;27.50;;
8397;SDS011;4236;54.504;9.588;2024-01-16T01:03:05;28.83;;;27.00;;
8397;SDS011;4236;54.504;9.588;2024-01-16T01:05:32;29.90;;;28.00;;
8397;SDS011;4236;54.504;9.588;2024-01-16T01:08:00;30.60;;;28.60;;
8397;SDS011;4236;54.504;9.588;2024-01-16T01:10:29;30.27;;;27.83;;
8397;SDS011;4236;54.504;9.588;2024-01-16T01:12:57;29.63;;;27.17;;
8397;SDS011;4236;54.504;9.588;2024-01-16T01:15:24;29.50;;;27.60;;
8397;SDS011;4236;54.504;9.588;2024-01-16T01:17:52;28.73;;;26.53;;
8397;SDS011;4236;54.504;9.588;2024-01-16T01:20:20;29.80;;;27.43;;
8397;SDS011;4236;54.504;9.588;2024-01-16T01:22:48;28.03;;;26.40;;
8397;SDS011;4236;54.504;9.588;2024-01-16T01:25:16;28.90;;;26.97;;
8397;SDS011;4236;54.504;9.588;2024-01-16T01:27:45;28.83;;;26.97;;
8397;SDS011;4236;54.504;9.588;2024-01-16T01:30:13;30.20;;;28.17;;
8397;SDS011;4236;54.504;9.588;2024-01-16T01:32:41;29.30;;;27.50;;
8397;SDS011;4236;54.504;9.588;2024-01-16T01:35:10;29.50;;;27.60;;
8397;SDS011;4236;54.504;9.588;2024-01-16T01:37:38;29.13;;;27.43;;
8397;SDS011;4236;54.504;9.588;2024-01-16T01:40:07;29.37;;;27.27;;
8397;SDS011;4236;54.504;9.588;2024-01-16T01:42:35;28.20;;;26.60;;
8397;SDS011;4236;54.504;9.588;2024-01-16T01:45:05;29.60;;;27.80;;
8397;SDS011;4236;54.504;9.588;2024-01-16T01:47:33;29.23;;;27.33;;
8397;SDS011;4236;54.504;9.588;2024-01-16T01:50:01;30.53;;;28.53;;
8397;SDS011;4236;54.504;9.588;2024-01-16T01:52:30;30.10;;;27.87;;
8397;SDS011;4236;54.504;9.588;2024-01-16T01:54:58;30.90;;;28.30;;
8397;SDS011;4236;54.504;9.588;2024-01-16T01:57:26;31.03;;;29.03;;
8397;SDS011;4236;54.504;9.588;2024-01-16T01:59:54;29.07;;;27.00;;
8397;SDS011;4236;54.504;9.588;2024-01-16T02:02:23;29.83;;;27.83;;
8397;SDS011;4236;54.504;9.588;2024-01-16T02:04:51;28.93;;;27.03;;
8397;SDS011;4236;54.504;9.588;2024-01-16T02:07:19;29.40;;;27.53;;
8397;SDS011;4236;54.504;9.588;2024-01-16T02:09:47;29.60;;;27.60;;
8397;SDS011;4236;54.504;9.588;2024-01-16T02:12:15;29.40;;;27.60;;
8397;SDS011;4236;54.504;9.588;2024-01-16T02:14:43;29.27;;;27.57;;
8397;SDS011;4236;54.504;9.588;2024-01-16T02:17:11;30.40;;;28.30;;
8397;SDS011;4236;54.504;9.588;2024-01-16T02:19:40;30.57;;;28.73;;
8397;SDS011;4236;54.504;9.588;2024-01-16T02:22:08;28.70;;;27.03;;
8397;SDS011;4236;54.504;9.588;2024-01-16T02:24:42;29.67;;;27.67;;
8397;SDS011;4236;54.504;9.588;2024-01-16T02:27:10;29.33;;;27.50;;
8397;SDS011;4236;54.504;9.588;2024-01-16T02:29:40;29.83;;;27.90;;
8397;SDS011;4236;54.504;9.588;2024-01-16T02:32:09;28.17;;;26.57;;
8397;SDS011;4236;54.504;9.588;2024-01-16T02:34:39;28.53;;;26.80;;
8397;SDS011;4236;54.504;9.588;2024-01-16T02:37:07;30.33;;;28.00;;
8397;SDS011;4236;54.504;9.588;2024-01-16T02:39:35;28.40;;;26.67;;
8397;SDS011;4236;54.504;9.588;2024-01-16T02:42:04;29.47;;;27.67;;
8397;SDS011;4236;54.504;9.588;2024-01-16T02:44:32;29.27;;;27.20;;
8397;SDS011;4236;54.504;9.588;2024-01-16T02:47:00;28.87;;;27.10;;
8397;SDS011;4236;54.504;9.588;2024-01-16T02:49:28;29.03;;;26.97;;
8397;SDS011;4236;54.504;9.588;2024-01-16T02:51:58;29.50;;;27.60;;
8397;SDS011;4236;54.504;9.588;2024-01-16T02:54:26;28.90;;;26.90;;
8397;SDS011;4236;54.504;9.588;2024-01-16T02:56:53;31.13;;;28.70;;
8397;SDS011;4236;54.504;9.588;2024-01-16T02:59:22;29.60;;;27.70;;
8397;SDS011;4236;54.504;9.588;2024-01-16T03:01:50;30.63;;;28.50;;
8397;SDS011;4236;54.504;9.588;2024-01-16T03:04:18;30.80;;;28.60;;
8397;SDS011;4236;54.504;9.588;2024-01-16T03:06:46;31.90;;;29.50;;
8397;SDS011;4236;54.504;9.588;2024-01-16T03:09:14;29.10;;;27.17;;
8397;SDS011;4236;54.504;9.588;2024-01-16T03:11:42;30.07;;;28.10;;
8397;SDS011;4236;54.504;9.588;2024-01-16T03:14:09;30.97;;;28.87;;
8397;SDS011;4236;54.504;9.588;2024-01-16T03:16:39;30.53;;;28.13;;
8397;SDS011;4236;54.504;9.588;2024-01-16T03:19:08;30.90;;;28.57;;
8397;SDS011;4236;54.504;9.588;2024-01-16T03:21:36;31.90;;;29.43;;
8397;SDS011;4236;54.504;9.588;2024-01-16T03:24:04;29.23;;;27.10;;
8397;SDS011;4236;54.504;9.588;2024-01-16T03:26:32;30.37;;;28.33;;
8397;SDS011;4236;54.504;9.588;2024-01-16T03:29:00;30.27;;;28.37;;
8397;SDS011;4236;54.504;9.588;2024-01-16T03:31:28;31.43;;;29.23;;
8397;SDS011;4236;54.504;9.588;2024-01-16T03:33:57;32.17;;;29.23;;
8397;SDS011;4236;54.504;9.588;2024-01-16T03:36:25;30.40;;;28.57;;
8397;SDS011;4236;54.504;9.588;2024-01-16T03:38:52;29.30;;;27.30;;
8397;SDS011;4236;54.504;9.588;2024-01-16T03:41:20;30.60;;;28.43;;
8397;SDS011;4236;54.504;9.588;2024-01-16T03:43:48;30.60;;;28.50;;
8397;SDS011;4236;54.504;9.588;2024-01-16T03:46:15;30.43;;;28.43;;
8397;SDS011;4236;54.504;9.588;2024-01-16T03:48:43;30.73;;;28.47;;
8397;SDS011;4236;54.504;9.588;2024-01-16T03:51:12;29.77;;;27.90;;
8397;SDS011;4236;54.504;9.588;2024-01-16T03:53:41;29.43;;;27.63;;
8397;SDS011;4236;54.504;9.588;2024-01-16T03:56:09;31.70;;;28.93;;
8397;SDS011;4236;54.504;9.588;2024-01-16T03:58:39;30.60;;;28.50;;
8397;SDS011;4236;54.504;9.588;2024-01-16T04:01:07;29.90;;;27.83;;
8397;SDS011;4236;54.504;9.588;2024-01-16T04:03:35;29.57;;;27.30;;
8397;SDS011;4236;54.504;9.588;2024-01-16T04:06:02;31.03;;;28.83;;
8397;SDS011;4236;54.504;9.588;2024-01-16T04:08:33;30.00;;;28.13;;
8397;SDS011;4236;54.504;9.588;2024-01-16T04:11:01;28.43;;;26.57;;
8397;SDS011;4236;54.504;9.588;2024-01-16T04:13:29;28.10;;;26.20;;
8397;SDS011;4236;54.504;9.588;2024-01-16T04:15:56;28.60;;;26.30;;
8397;SDS011;4236;54.504;9.588;2024-01-16T04:18:24;28.63;;;26.33;;
8397;SDS011;4236;54.504;9.588;2024-01-16T04:20:52;28.33;;;26.13;;
8397;SDS011;4236;54.504;9.588;2024-01-16T04:23:20;27.80;;;26.00;;
8397;SDS011;4236;54.504;9.588;2024-01-16T04:25:49;27.57;;;25.97;;
8397;SDS011;4236;54.504;9.588;2024-01-16T04:28:17;28.17;;;26.20;;
8397;SDS011;4236;54.504;9.588;2024-01-16T04:30:45;28.73;;;26.90;;
8397;SDS011;4236;54.504;9.588;2024-01-16T04:33:13;28.60;;;26.83;;
8397;SDS011;4236;54.504;9.588;2024-01-16T04:35:41;28.47;;;26.70;;
8397;SDS011;4236;54.504;9.588;2024-01-16T04:38:08;28.93;;;27.17;;
8397;SDS011;4236;54.504;9.588;2024-01-16T04:40:36;30.33;;;28.23;;
8397;SDS011;4236;54.504;9.588;2024-01-16T04:43:05;30.37;;;28.07;;
8397;SDS011;4236;54.504;9.588;2024-01-16T04:45:33;30.93;;;28.83;;
8397;SDS011;4236;54.504;9.588;2024-01-16T04:48:01;30.00;;;27.87;;
8397;SDS011;4236;54.504;9.588;2024-01-16T04:50:29;29.70;;;27.63;;
8397;SDS011;4236;54.504;9.588;2024-01-16T04:52:58;31.73;;;29.60;;
8397;SDS011;4236;54.504;9.588;2024-01-16T04:55:26;29.13;;;27.03;;
8397;SDS011;4236;54.504;9.588;2024-01-16T04:57:54;29.97;;;27.67;;
8397;SDS011;4236;54.504;9.588;2024-01-16T05:00:24;37.70;;;34.67;;
8397;SDS011;4236;54.504;9.588;2024-01-16T05:02:52;32.07;;;29.70;;
8397;SDS011;4236;54.504;9.588;2024-01-16T05:05:20;31.90;;;29.50;;
8397;SDS011;4236;54.504;9.588;2024-01-16T05:07:49;33.83;;;30.20;;
8397;SDS011;4236;54.504;9.588;2024-01-16T05:10:17;36.00;;;32.23;;
8397;SDS011;4236;54.504;9.588;2024-01-16T05:12:45;34.67;;;31.30;;
8397;SDS011;4236;54.504;9.588;2024-01-16T05:15:12;38.23;;;34.67;;
8397;SDS011;4236;54.504;9.588;2024-01-16T05:17:42;35.03;;;31.93;;
8397;SDS011;4236;54.504;9.588;2024-01-16T05:20:10;37.87;;;34.37;;
8397;SDS011;4236;54.504;9.588;2024-01-16T05:22:38;38.27;;;34.37;;
8397;SDS011;4236;54.504;9.588;2024-01-16T05:25:06;35.23;;;32.10;;
8397;SDS011;4236;54.504;9.588;2024-01-16T05:27:34;37.27;;;33.40;;
8397;SDS011;4236;54.504;9.588;2024-01-16T05:30:02;36.13;;;32.77;;
8397;SDS011;4236;54.504;9.588;2024-01-16T05:32:31;38.80;;;35.00;;
8397;SDS011;4236;54.504;9.588;2024-01-16T05:35:00;38.27;;;35.07;;
8397;SDS011;4236;54.504;9.588;2024-01-16T05:37:27;37.03;;;33.80;;
8397;SDS011;4236;54.504;9.588;2024-01-16T05:39:56;37.07;;;33.83;;
8397;SDS011;4236;54.504;9.588;2024-01-16T05:42:23;36.13;;;33.00;;
8397;SDS011;4236;54.504;9.588;2024-01-16T05:44:52;39.80;;;35.97;;
8397;SDS011;4236;54.504;9.588;2024-01-16T05:47:20;40.30;;;36.10;;
8397;SDS011;4236;54.504;9.588;2024-01-16T05:49:50;40.50;;;35.30;;
8397;SDS011;4236;54.504;9.588;2024-01-16T05:52:19;36.27;;;33.20;;
8397;SDS011;4236;54.504;9.588;2024-01-16T05:54:47;40.10;;;36.53;;
8397;SDS011;4236;54.504;9.588;2024-01-16T05:57:15;40.47;;;36.33;;
8397;SDS011;4236;54.504;9.588;2024-01-16T05:59:43;38.23;;;34.63;;
8397;SDS011;4236;54.504;9.588;2024-01-16T06:02:11;40.70;;;36.87;;
8397;SDS011;4236;54.504;9.588;2024-01-16T06:04:39;39.60;;;35.80;;
8397;SDS011;4236;54.504;9.588;2024-01-16T06:07:07;41.63;;;37.60;;
8397;SDS011;4236;54.504;9.588;2024-01-16T06:09:39;36.70;;;33.23;;
8397;SDS011;4236;54.504;9.588;2024-01-16T06:12:07;38.87;;;35.10;;
8397;SDS011;4236;54.504;9.588;2024-01-16T06:14:35;40.60;;;36.53;;
8397;SDS011;4236;54.504;9.588;2024-01-16T06:17:03;39.13;;;35.30;;
8397;SDS011;4236;54.504;9.588;2024-01-16T06:19:32;38.77;;;35.07;;
8397;SDS011;4236;54.504;9.588;2024-01-16T06:22:00;37.53;;;34.23;;
8397;SDS011;4236;54.504;9.588;2024-01-16T06:24:27;36.80;;;33.67;;
8397;SDS011;4236;54.504;9.588;2024-01-16T06:26:57;38.40;;;34.90;;
8397;SDS011;4236;54.504;9.588;2024-01-16T06:29:25;39.17;;;35.50;;
8397;SDS011;4236;54.504;9.588;2024-01-16T06:32:00;39.47;;;35.57;;
8397;SDS011;4236;54.504;9.588;2024-01-16T06:34:28;37.70;;;34.20;;
8397;SDS011;4236;54.504;9.588;2024-01-16T06:36:56;36.53;;;33.23;;
8397;SDS011;4236;54.504;9.588;2024-01-16T06:39:24;39.77;;;35.43;;
8397;SDS011;4236;54.504;9.588;2024-01-16T06:41:51;40.90;;;36.90;;
8397;SDS011;4236;54.504;9.588;2024-01-16T06:44:21;40.73;;;36.63;;
8397;SDS011;4236;54.504;9.588;2024-01-16T06:46:48;37.70;;;34.00;;
8397;SDS011;4236;54.504;9.588;2024-01-16T06:49:16;38.47;;;34.97;;
8397;SDS011;4236;54.504;9.588;2024-01-16T06:51:44;37.80;;;34.27;;
8397;SDS011;4236;54.504;9.588;2024-01-16T06:54:12;35.83;;;32.93;;
8397;SDS011;4236;54.504;9.588;2024-01-16T06:56:40;38.80;;;35.10;;
8397;SDS011;4236;54.504;9.588;2024-01-16T06:59:07;36.77;;;33.27;;
8397;SDS011;4236;54.504;9.588;2024-01-16T07:01:38;36.80;;;33.40;;
8397;SDS011;4236;54.504;9.588;2024-01-16T07:04:06;38.13;;;34.93;;
8397;SDS011;4236;54.504;9.588;2024-01-16T07:06:34;36.93;;;33.67;;
8397;SDS011;4236;54.504;9.588;2024-01-16T07:09:02;38.97;;;34.93;;
8397;SDS011;4236;54.504;9.588;2024-01-16T07:11:31;41.27;;;35.23;;
8397;SDS011;4236;54.504;9.588;2024-01-16T07:13:59;37.20;;;33.70;;
8397;SDS011;4236;54.504;9.588;2024-01-16T07:16:26;37.03;;;33.53;;
8397;SDS011;4236;54.504;9.588;2024-01-16T07:18:56;38.40;;;34.73;;
8397;SDS011;4236;54.504;9.588;2024-01-16T07:21:24;37.97;;;34.40;;
8397;SDS011;4236;54.504;9.588;2024-01-16T07:23:52;36.10;;;32.90;;
8397;SDS011;4236;54.504;9.588;2024-01-16T07:26:20;37.20;;;33.70;;
8397;SDS011;4236;54.504;9.588;2024-01-16T07:28:49;35.73;;;32.37;;
8397;SDS011;4236;54.504;9.588;2024-01-16T07:31:17;39.53;;;35.63;;
8397;SDS011;4236;54.504;9.588;2024-01-16T07:33:45;37.23;;;34.17;;
8397;SDS011;4236;54.504;9.588;2024-01-16T07:36:14;35.70;;;32.60;;
8397;SDS011;4236;54.504;9.588;2024-01-16T07:38:42;36.90;;;33.43;;
8397;SDS011;4236;54.504;9.588;2024-01-16T07:41:10;38.13;;;34.37;;
8397;SDS011;4236;54.504;9.588;2024-01-16T07:43:37;38.83;;;34.70;;
8397;SDS011;4236;54.504;9.588;2024-01-16T07:46:06;34.73;;;31.70;;
8397;SDS011;4236;54.504;9.588;2024-01-16T07:48:33;40.07;;;36.20;;
8397;SDS011;4236;54.504;9.588;2024-01-16T07:51:01;36.27;;;33.07;;
8397;SDS011;4236;54.504;9.588;2024-01-16T07:53:30;38.93;;;35.27;;
8397;SDS011;4236;54.504;9.588;2024-01-16T07:55:58;38.33;;;34.50;;
8397;SDS011;4236;54.504;9.588;2024-01-16T07:58:25;38.83;;;34.93;;
8397;SDS011;4236;54.504;9.588;2024-01-16T08:00:53;37.67;;;34.20;;
8397;SDS011;4236;54.504;9.588;2024-01-16T08:03:21;38.80;;;35.37;;
8397;SDS011;4236;54.504;9.588;2024-01-16T08:05:49;37.53;;;34.17;;
8397;SDS011;4236;54.504;9.588;2024-01-16T08:08:17;38.67;;;34.70;;
8397;SDS011;4236;54.504;9.588;2024-01-16T08:10:46;38.83;;;35.53;;
8397;SDS011;4236;54.504;9.588;2024-01-16T08:13:14;38.97;;;35.23;;
8397;SDS011;4236;54.504;9.588;2024-01-16T08:15:41;37.43;;;34.30;;
8397;SDS011;4236;54.504;9.588;2024-01-16T08:18:09;37.10;;;34.00;;
8397;SDS011;4236;54.504;9.588;2024-01-16T08:20:37;37.37;;;34.07;;
8397;SDS011;4236;54.504;9.588;2024-01-16T08:23:05;35.40;;;32.30;;
8397;SDS011;4236;54.504;9.588;2024-01-16T08:25:32;37.97;;;34.67;;
8397;SDS011;4236;54.504;9.588;2024-01-16T08:28:01;39.33;;;35.37;;
8397;SDS011;4236;54.504;9.588;2024-01-16T08:30:30;45.70;;;40.87;;
8397;SDS011;4236;54.504;9.588;2024-01-16T08:32:58;42.57;;;38.37;;
8397;SDS011;4236;54.504;9.588;2024-01-16T08:35:26;36.77;;;33.67;;
8397;SDS011;4236;54.504;9.588;2024-01-16T08:37:54;33.63;;;30.90;;
8397;SDS011;4236;54.504;9.588;2024-01-16T08:40:21;35.10;;;32.10;;
8397;SDS011;4236;54.504;9.588;2024-01-16T08:42:49;34.20;;;31.47;;
8397;SDS011;4236;54.504;9.588;2024-01-16T08:45:24;33.20;;;30.50;;
8397;SDS011;4236;54.504;9.588;2024-01-16T08:47:53;35.27;;;31.93;;
8397;SDS011;4236;54.504;9.588;2024-01-16T08:50:21;34.30;;;31.40;;
8397;SDS011;4236;54.504;9.588;2024-01-16T08:52:49;34.20;;;31.07;;
8397;SDS011;4236;54.504;9.588;2024-01-16T08:55:17;33.83;;;30.80;;
8397;SDS011;4236;54.504;9.588;2024-01-16T08:57:44;33.00;;;29.90;;
8397;SDS011;4236;54.504;9.588;2024-01-16T09:00:12;33.43;;;30.60;;
8397;SDS011;4236;54.504;9.588;2024-01-16T09:02:43;34.50;;;31.60;;
8397;SDS011;4236;54.504;9.588;2024-01-16T09:05:10;34.20;;;31.00;;
8397;SDS011;4236;54.504;9.588;2024-01-16T09:07:39;32.87;;;29.97;;
8397;SDS011;4236;54.504;9.588;2024-01-16T09:10:08;34.17;;;31.47;;
8397;SDS011;4236;54.504;9.588;2024-01-16T09:12:36;34.40;;;31.83;;
8397;SDS011;4236;54.504;9.588;2024-01-16T09:15:04;34.67;;;31.73;;
8397;SDS011;4236;54.504;9.588;2024-01-16T09:17:32;32.83;;;30.20;;
8397;SDS011;4236;54.504;9.588;2024-01-16T09:20:01;33.83;;;30.73;;
8397;SDS011;4236;54.504;9.588;2024-01-16T09:22:29;33.40;;;30.40;;
8397;SDS011;4236;54.504;9.588;2024-01-16T09:24:57;33.07;;;30.37;;
8397;SDS011;4236;54.504;9.588;2024-01-16T09:27:25;32.73;;;30.17;;
8397;SDS011;4236;54.504;9.588;2024-01-16T09:29:52;31.77;;;29.33;;
8397;SDS011;4236;54.504;9.588;2024-01-16T09:32:20;33.70;;;30.50;;
8397;SDS011;4236;54.504;9.588;2024-01-16T09:34:48;32.30;;;29.50;;
8397;SDS011;4236;54.504;9.588;2024-01-16T09:37:17;32.07;;;29.47;;
8397;SDS011;4236;54.504;9.588;2024-01-16T09:39:45;31.37;;;28.97;;
8397;SDS011;4236;54.504;9.588;2024-01-16T09:42:12;34.63;;;31.63;;
8397;SDS011;4236;54.504;9.588;2024-01-16T09:44:41;33.37;;;30.40;;
8397;SDS011;4236;54.504;9.588;2024-01-16T09:47:09;31.13;;;29.03;;
8397;SDS011;4236;54.504;9.588;2024-01-16T09:49:38;33.97;;;30.60;;
8397;SDS011;4236;54.504;9.588;2024-01-16T09:52:06;33.60;;;30.90;;
8397;SDS011;4236;54.504;9.588;2024-01-16T09:54:35;32.50;;;30.13;;
8397;SDS011;4236;54.504;9.588;2024-01-16T09:57:03;33.03;;;30.53;;
8397;SDS011;4236;54.504;9.588;2024-01-16T09:59:35;33.77;;;30.83;;
8397;SDS011;4236;54.504;9.588;2024-01-16T10:02:05;35.03;;;32.20;;
8397;SDS011;4236;54.504;9.588;2024-01-16T10:04:37;35.23;;;32.20;;
8397;SDS011;4236;54.504;9.588;2024-01-16T10:07:05;34.30;;;31.80;;
8397;SDS011;4236;54.504;9.588;2024-01-16T10:09:36;35.53;;;32.70;;
8397;SDS011;4236;54.504;9.588;2024-01-16T10:12:05;34.80;;;32.20;;
8397;SDS011;4236;54.504;9.588;2024-01-16T10:14:34;34.63;;;32.07;;
8397;SDS011;4236;54.504;9.588;2024-01-16T10:17:03;34.40;;;31.40;;
8397;SDS011;4236;54.504;9.588;2024-01-16T10:19:33;35.40;;;32.30;;
8397;SDS011;4236;54.504;9.588;2024-01-16T10:22:14;33.93;;;31.40;;
8397;SDS011;4236;54.504;9.588;2024-01-16T10:24:55;33.07;;;30.40;;
8397;SDS011;4236;54.504;9.588;2024-01-16T10:27:31;35.30;;;32.40;;
8397;SDS011;4236;54.504;9.588;2024-01-16T10:30:00;36.73;;;33.77;;
8397;SDS011;4236;54.504;9.588;2024-01-16T10:32:29;35.87;;;33.00;;
8397;SDS011;4236;54.504;9.588;2024-01-16T10:35:05;35.57;;;32.53;;
8397;SDS011;4236;54.504;9.588;2024-01-16T10:37:40;34.33;;;31.73;;
8397;SDS011;4236;54.504;9.588;2024-01-16T10:40:12;37.97;;;34.80;;
8397;SDS011;4236;54.504;9.588;2024-01-16T10:42:42;38.13;;;35.23;;
8397;SDS011;4236;54.504;9.588;2024-01-16T10:45:11;36.00;;;32.73;;
8397;SDS011;4236;54.504;9.588;2024-01-16T10:47:45;33.50;;;31.10;;
8397;SDS011;4236;54.504;9.588;2024-01-16T10:50:13;33.17;;;30.77;;
8397;SDS011;4236;54.504;9.588;2024-01-16T10:52:43;33.00;;;30.40;;
8397;SDS011;4236;54.504;9.588;2024-01-16T10:55:19;33.20;;;30.70;;
8397;SDS011;4236;54.504;9.588;2024-01-16T10:57:48;32.57;;;30.00;;
8397;SDS011;4236;54.504;9.588;2024-01-16T11:00:18;32.57;;;29.83;;
8397;SDS011;4236;54.504;9.588;2024-01-16T11:02:50;35.33;;;32.60;;
8397;SDS011;4236;54.504;9.588;2024-01-16T11:05:25;33.77;;;31.50;;
8397;SDS011;4236;54.504;9.588;2024-01-16T11:07:56;33.80;;;31.50;;
8397;SDS011;4236;54.504;9.588;2024-01-16T11:10:28;34.73;;;32.13;;
8397;SDS011;4236;54.504;9.588;2024-01-16T11:12:59;33.20;;;30.57;;
8397;SDS011;4236;54.504;9.588;2024-01-16T11:15:28;33.73;;;31.00;;
8397;SDS011;4236;54.504;9.588;2024-01-16T11:17:56;29.70;;;27.70;;
8397;SDS011;4236;54.504;9.588;2024-01-16T11:20:24;31.67;;;29.47;;
8397;SDS011;4236;54.504;9.588;2024-01-16T11:23:13;32.20;;;29.70;;
8397;SDS011;4236;54.504;9.588;2024-01-16T11:25:43;32.27;;;29.63;;
8397;SDS011;4236;54.504;9.588;2024-01-16T11:28:11;30.40;;;28.40;;
8397;SDS011;4236;54.504;9.588;2024-01-16T11:30:40;28.47;;;26.77;;
8397;SDS011;4236;54.504;9.588;2024-01-16T11:33:41;29.10;;;27.20;;
8397;SDS011;4236;54.504;9.588;2024-01-16T11:39:19;30.90;;;28.90;;
8397;SDS011;4236;54.504;9.588;2024-01-16T11:41:49;31.00;;;28.80;;
8397;SDS011;4236;54.504;9.588;2024-01-16T11:44:37;31.10;;;29.00;;
8397;SDS011;4236;54.504;9.588;2024-01-16T11:47:07;29.97;;;27.93;;
8397;SDS011;4236;54.504;9.588;2024-01-16T11:49:35;29.20;;;27.30;;
8397;SDS011;4236;54.504;9.588;2024-01-16T11:52:04;30.27;;;28.30;;
8397;SDS011;4236;54.504;9.588;2024-01-16T11:54:33;30.17;;;28.20;;
8397;SDS011;4236;54.504;9.588;2024-01-16T11:59:58;30.23;;;28.17;;
8397;SDS011;4236;54.504;9.588;2024-01-16T12:02:29;30.10;;;28.10;;
8397;SDS011;4236;54.504;9.588;2024-01-16T12:05:06;28.00;;;25.83;;
8397;SDS011;4236;54.504;9.588;2024-01-16T12:10:21;33.00;;;30.33;;
8397;SDS011;4236;54.504;9.588;2024-01-16T12:12:52;31.43;;;29.03;;
8397;SDS011;4236;54.504;9.588;2024-01-16T12:15:30;31.70;;;29.57;;
8397;SDS011;4236;54.504;9.588;2024-01-16T12:17:58;30.93;;;28.70;;
8397;SDS011;4236;54.504;9.588;2024-01-16T12:20:29;30.90;;;28.77;;
8397;SDS011;4236;54.504;9.588;2024-01-16T12:22:58;31.40;;;29.10;;
8397;SDS011;4236;54.504;9.588;2024-01-16T12:25:28;30.97;;;28.97;;
8397;SDS011;4236;54.504;9.588;2024-01-16T12:28:19;30.30;;;28.20;;
8397;SDS011;4236;54.504;9.588;2024-01-16T12:30:58;29.20;;;27.20;;
8397;SDS011;4236;54.504;9.588;2024-01-16T12:33:28;29.07;;;27.27;;
8397;SDS011;4236;54.504;9.588;2024-01-16T12:36:00;30.80;;;28.23;;
8397;SDS011;4236;54.504;9.588;2024-01-16T12:38:30;32.10;;;29.20;;
8397;SDS011;4236;54.504;9.588;2024-01-16T12:40:58;26.57;;;24.93;;
8397;SDS011;4236;54.504;9.588;2024-01-16T12:43:29;29.53;;;27.23;;
8397;SDS011;4236;54.504;9.588;2024-01-16T12:45:59;27.70;;;25.80;;
8397;SDS011;4236;54.504;9.588;2024-01-16T12:48:27;29.13;;;27.27;;
8397;SDS011;4236;54.504;9.588;2024-01-16T12:50:58;25.77;;;24.43;;
8397;SDS011;4236;54.504;9.588;2024-01-16T12:53:30;27.00;;;25.20;;
8397;SDS011;4236;54.504;9.588;2024-01-16T12:56:01;27.43;;;25.73;;
8397;SDS011;4236;54.504;9.588;2024-01-16T12:58:34;28.13;;;26.27;;
8397;SDS011;4236;54.504;9.588;2024-01-16T13:01:20;27.00;;;25.10;;
8397;SDS011;4236;54.504;9.588;2024-01-16T13:04:04;27.77;;;25.50;;
8397;SDS011;4236;54.504;9.588;2024-01-16T13:06:32;28.20;;;26.20;;
8397;SDS011;4236;54.504;9.588;2024-01-16T13:09:04;28.93;;;27.03;;
8397;SDS011;4236;54.504;9.588;2024-01-16T13:11:49;27.37;;;25.57;;
8397;SDS011;4236;54.504;9.588;2024-01-16T13:14:22;27.33;;;25.83;;
8397;SDS011;4236;54.504;9.588;2024-01-16T13:16:51;26.50;;;24.90;;
8397;SDS011;4236;54.504;9.588;2024-01-16T13:19:22;27.90;;;25.90;;
8397;SDS011;4236;54.504;9.588;2024-01-16T13:21:51;27.57;;;25.77;;
8397;SDS011;4236;54.504;9.588;2024-01-16T13:24:20;28.57;;;26.77;;
8397;SDS011;4236;54.504;9.588;2024-01-16T13:26:50;27.70;;;25.97;;
8397;SDS011;4236;54.504;9.588;2024-01-16T13:29:18;27.43;;;25.63;;
8397;SDS011;4236;54.504;9.588;2024-01-16T13:31:48;25.50;;;24.00;;
8397;SDS011;4236;54.504;9.588;2024-01-16T13:34:21;25.80;;;24.27;;
8397;SDS011;4236;54.504;9.588;2024-01-16T13:36:52;24.73;;;23.33;;
8397;SDS011;4236;54.504;9.588;2024-01-16T13:39:41;25.67;;;23.80;;
8397;SDS011;4236;54.504;9.588;2024-01-16T13:42:09;25.70;;;24.30;;
8397;SDS011;4236;54.504;9.588;2024-01-16T13:44:37;25.77;;;24.17;;
8397;SDS011;4236;54.504;9.588;2024-01-16T13:47:06;25.40;;;24.10;;
8397;SDS011;4236;54.504;9.588;2024-01-16T13:49:40;25.27;;;23.53;;
8397;SDS011;4236;54.504;9.588;2024-01-16T13:52:08;26.47;;;23.97;;
8397;SDS011;4236;54.504;9.588;2024-01-16T13:54:37;27.00;;;24.90;;
8397;SDS011;4236;54.504;9.588;2024-01-16T13:57:06;31.97;;;28.60;;
8397;SDS011;4236;54.504;9.588;2024-01-16T13:59:37;29.40;;;26.80;;
8397;SDS011;4236;54.504;9.588;2024-01-16T14:02:05;26.80;;;25.10;;
8397;SDS011;4236;54.504;9.588;2024-01-16T14:04:35;28.87;;;26.70;;
8397;SDS011;4236;54.504;9.588;2024-01-16T14:07:02;28.23;;;26.53;;
8397;SDS011;4236;54.504;9.588;2024-01-16T14:09:34;28.57;;;26.47;;
8397;SDS011;4236;54.504;9.588;2024-01-16T14:12:02;27.63;;;25.77;;
8397;SDS011;4236;54.504;9.588;2024-01-16T14:14:32;27.63;;;25.63;;
8397;SDS011;4236;54.504;9.588;2024-01-16T14:17:00;28.07;;;26.10;;
8397;SDS011;4236;54.504;9.588;2024-01-16T14:19:29;27.50;;;26.00;;
8397;SDS011;4236;54.504;9.588;2024-01-16T14:21:57;29.00;;;26.90;;
8397;SDS011;4236;54.504;9.588;2024-01-16T14:24:25;29.77;;;27.37;;
8397;SDS011;4236;54.504;9.588;2024-01-16T14:26:53;29.37;;;27.07;;
8397;SDS011;4236;54.504;9.588;2024-01-16T14:29:22;33.13;;;30.37;;
8397;SDS011;4236;54.504;9.588;2024-01-16T14:31:50;30.40;;;27.90;;
8397;SDS011;4236;54.504;9.588;2024-01-16T14:34:18;31.70;;;29.10;;
8397;SDS011;4236;54.504;9.588;2024-01-16T14:36:47;28.80;;;26.90;;
8397;SDS011;4236;54.504;9.588;2024-01-16T14:39:16;30.13;;;28.23;;
8397;SDS011;4236;54.504;9.588;2024-01-16T14:41:51;27.57;;;25.93;;
8397;SDS011;4236;54.504;9.588;2024-01-16T14:44:19;28.20;;;26.40;;
8397;SDS011;4236;54.504;9.588;2024-01-16T14:46:47;26.63;;;25.10;;
8397;SDS011;4236;54.504;9.588;2024-01-16T14:49:18;31.10;;;28.83;;
8397;SDS011;4236;54.504;9.588;2024-01-16T14:51:48;33.37;;;30.67;;
8397;SDS011;4236;54.504;9.588;2024-01-16T14:54:16;37.50;;;34.20;;
8397;SDS011;4236;54.504;9.588;2024-01-16T14:56:45;39.43;;;35.80;;
8397;SDS011;4236;54.504;9.588;2024-01-16T14:59:13;30.90;;;28.80;;
8397;SDS011;4236;54.504;9.588;2024-01-16T15:01:42;31.10;;;28.90;;
8397;SDS011;4236;54.504;9.588;2024-01-16T15:04:11;28.50;;;26.50;;
8397;SDS011;4236;54.504;9.588;2024-01-16T15:06:39;26.67;;;25.17;;
8397;SDS011;4236;54.504;9.588;2024-01-16T15:09:09;25.10;;;23.70;;